Terminal Aerodrome Forecast
Issued by NWS Columbia, SC

Home | Current Version | Previous Version | Text Only | Print | Product List | Glossary On
Versions: 1 2 3 4 5 6 7 8 9 10 11 12 13 14 15 16 17 18 19 20 21 22 23 24 25 26 27 28 29 30 31 32 33 34
230
FTUS42 KCAE 240913 AAD
TAFCAE
TAF AMD
KCAE 240913Z 2409/2506 08008KT P6SM SCT008 OVC014
     FM241100 11006KT P6SM OVC007
     FM241500 20007KT P6SM BKN025
     FM241800 23010KT P6SM SCT030 BKN050
     FM250100 23006KT P6SM BKN100=

USA.gov is the U.S. government's official web portal to all federal, state and local government web resources and services.